This is the latest recevied weather packets stored in our database for station/object K9ABJ. If no packets are shown the sender has not sent any weather packets the latest 10 day(s).
| Time | Temp. | Humidity | Pressure | Rain* | Wind** | Luminosity | Snow |
|---|---|---|---|---|---|---|---|
| 1787589800 | 23.33° C | 64% | 1018 hPa | 0 mm | - | 549 W/m² | - |
| 1787589495 | 23.89° C | 58% | 1018 hPa | 0 mm | - | 772 W/m² | - |
| 1787589190 | 23.89° C | 62% | 1018 hPa | 0 mm | - | 601 W/m² | - |
| 1787588886 | 23.89° C | 65% | 1017.9 hPa | 0 mm | - | 396 W/m² | - |
| 1787588582 | 25° C | 60% | 1017.9 hPa | 0 mm | - | 672 W/m² | - |
| 1787588277 | 23.89° C | 64% | 1018.1 hPa | 0 mm | - | 196 W/m² | - |
| 1787587972 | 23.89° C | 62% | 1018 hPa | 0 mm | - | 593 W/m² | - |
| 1787587667 | 23.89° C | 64% | 1018 hPa | 0 mm | - | 553 W/m² | - |
| 1787587362 | 24.44° C | 63% | 1017.9 hPa | 0 mm | - | 574 W/m² | - |
| 1787587056 | 23.33° C | 63% | 1017.7 hPa | 0 mm | - | 576 W/m² | - |
| 1787586751 | 22.22° C | 68% | 1017.9 hPa | 0 mm | - | 564 W/m² | - |
| 1787586447 | 21.67° C | 71% | 1017.5 hPa | 0 mm | - | 331 W/m² | - |
| 1787586143 | 22.22° C | 72% | 1017.6 hPa | 0 mm | - | 541 W/m² | - |
| 1787585839 | 23.33° C | 70% | 1017.9 hPa | 0 mm | - | 565 W/m² | - |
| 1787585539 | 23.89° C | 67% | 1017.6 hPa | 0 mm | - | 586 W/m² | - |
| 1787585234 | 22.78° C | 70% | 1017.7 hPa | 0 mm | - | 563 W/m² | - |
| 1787584934 | 23.89° C | 69% | 1017.6 hPa | 0 mm | - | 560 W/m² | - |
| 1787584628 | 22.78° C | 69% | 1017.4 hPa | 0 mm | - | 617 W/m² | - |
| 1787584327 | 22.78° C | 72% | 1017.3 hPa | 0 mm | - | 610 W/m² | - |
| 1787584026 | 21.11° C | 75% | 1017.5 hPa | 0 mm | - | 595 W/m² | - |
| 1787583722 | 21.11° C | 75% | 1017.5 hPa | 0 mm | - | 398 W/m² | - |
| 1787583422 | 20.56° C | 77% | 1017.6 hPa | 0 mm | - | 429 W/m² | - |
| 1787583120 | 20.56° C | 77% | 1017.3 hPa | 0 mm | - | 688 W/m² | - |
| 1787582815 | 20.56° C | 74% | 1017.4 hPa | 0 mm | - | 451 W/m² | - |
| 1787582510 | 22.78° C | 70% | 1017.3 hPa | 0 mm | - | 524 W/m² | - |
* Rain latest hour (hover to see other rain measurements)
** Current wind speed in m/s (hover to see current wind gust speed)